Creola, Alabama
Current Conditions -  °F | °C
As of 5:53 PM on Wednesday 26 Nov 2014 (Local Time) from KBFM Reporting Station
Clear Clear  
Wind Chill: 53°   Ceiling: Unl
Heat Index: 53°   Visibility: 10mi
Dew Point: 40°   Wind: 0mph
Humidity: 61%   Direction: NA
Pressure: 30.2"   Gusts: NA
Location:  30.89°N, 88.04°W
Report Text: KBFM 262353Z 00000KT 10SM CLR 12/04 A3020 RMK AO2 SLP225 T01170044 10172 20117 53005
Loading
Personal Weather Stations






























Interactive Weather Map New forecast layout! Learn more

10-Day Weather Forecast

Advertisements
Track Severe Weather on mobile